sensor_id;sensor_type;location;lat;lon;timestamp;temperature;humidity
50758;DHT22;36732;47.980;11.652;2024-03-06T00:01:06;10.60;66.30
50758;DHT22;36732;47.980;11.652;2024-03-06T00:03:32;10.60;66.00
50758;DHT22;36732;47.980;11.652;2024-03-06T00:05:58;10.50;65.80
50758;DHT22;36732;47.980;11.652;2024-03-06T00:08:24;10.50;65.80
50758;DHT22;36732;47.980;11.652;2024-03-06T00:10:49;10.50;66.40
50758;DHT22;36732;47.980;11.652;2024-03-06T00:13:15;10.50;65.70
50758;DHT22;36732;47.980;11.652;2024-03-06T00:15:41;10.50;65.60
50758;DHT22;36732;47.980;11.652;2024-03-06T00:18:06;10.50;65.50
50758;DHT22;36732;47.980;11.652;2024-03-06T00:20:32;10.50;65.50
50758;DHT22;36732;47.980;11.652;2024-03-06T00:22:58;10.40;65.40
50758;DHT22;36732;47.980;11.652;2024-03-06T00:25:24;10.40;65.30
50758;DHT22;36732;47.980;11.652;2024-03-06T00:27:50;10.40;65.20
50758;DHT22;36732;47.980;11.652;2024-03-06T00:30:16;10.40;65.20
50758;DHT22;36732;47.980;11.652;2024-03-06T00:32:42;10.40;65.10
50758;DHT22;36732;47.980;11.652;2024-03-06T00:35:08;10.40;65.00
50758;DHT22;36732;47.980;11.652;2024-03-06T00:37:33;10.40;64.90
50758;DHT22;36732;47.980;11.652;2024-03-06T00:39:59;10.40;64.70
50758;DHT22;36732;47.980;11.652;2024-03-06T00:42:25;10.40;64.70
50758;DHT22;36732;47.980;11.652;2024-03-06T00:44:50;10.30;64.70
50758;DHT22;36732;47.980;11.652;2024-03-06T00:47:16;10.30;64.60
50758;DHT22;36732;47.980;11.652;2024-03-06T00:49:42;10.30;64.60
50758;DHT22;36732;47.980;11.652;2024-03-06T00:52:07;10.30;64.60
50758;DHT22;36732;47.980;11.652;2024-03-06T00:54:35;10.30;64.30
50758;DHT22;36732;47.980;11.652;2024-03-06T00:57:00;10.30;64.30
50758;DHT22;36732;47.980;11.652;2024-03-06T00:59:27;10.20;64.30
50758;DHT22;36732;47.980;11.652;2024-03-06T01:01:53;10.20;64.30
50758;DHT22;36732;47.980;11.652;2024-03-06T01:04:22;10.20;64.30
50758;DHT22;36732;47.980;11.652;2024-03-06T01:06:48;10.20;64.20
50758;DHT22;36732;47.980;11.652;2024-03-06T01:09:13;10.20;64.10
50758;DHT22;36732;47.980;11.652;2024-03-06T01:11:39;10.20;64.10
50758;DHT22;36732;47.980;11.652;2024-03-06T01:14:05;10.20;63.90
50758;DHT22;36732;47.980;11.652;2024-03-06T01:16:30;10.20;63.80
50758;DHT22;36732;47.980;11.652;2024-03-06T01:18:56;10.10;63.60
50758;DHT22;36732;47.980;11.652;2024-03-06T01:21:22;10.10;63.60
50758;DHT22;36732;47.980;11.652;2024-03-06T01:23:47;10.10;63.60
50758;DHT22;36732;47.980;11.652;2024-03-06T01:26:13;10.10;63.60
50758;DHT22;36732;47.980;11.652;2024-03-06T01:28:39;10.00;63.50
50758;DHT22;36732;47.980;11.652;2024-03-06T01:31:04;10.00;63.20
50758;DHT22;36732;47.980;11.652;2024-03-06T01:33:30;10.00;63.30
50758;DHT22;36732;47.980;11.652;2024-03-06T01:35:56;10.00;63.20
50758;DHT22;36732;47.980;11.652;2024-03-06T01:38:22;10.00;63.10
50758;DHT22;36732;47.980;11.652;2024-03-06T01:40:47;9.90;63.10
50758;DHT22;36732;47.980;11.652;2024-03-06T01:43:24;9.90;62.90
50758;DHT22;36732;47.980;11.652;2024-03-06T01:45:50;9.90;62.80
50758;DHT22;36732;47.980;11.652;2024-03-06T01:48:23;9.90;62.80
50758;DHT22;36732;47.980;11.652;2024-03-06T01:50:51;9.90;62.60
50758;DHT22;36732;47.980;11.652;2024-03-06T01:53:19;9.90;62.70
50758;DHT22;36732;47.980;11.652;2024-03-06T01:55:45;9.90;62.50
50758;DHT22;36732;47.980;11.652;2024-03-06T01:58:11;9.90;62.40
50758;DHT22;36732;47.980;11.652;2024-03-06T02:00:37;9.80;62.20
50758;DHT22;36732;47.980;11.652;2024-03-06T02:03:03;9.80;62.20
50758;DHT22;36732;47.980;11.652;2024-03-06T02:05:29;9.80;62.10
50758;DHT22;36732;47.980;11.652;2024-03-06T02:07:58;9.80;62.00
50758;DHT22;36732;47.980;11.652;2024-03-06T02:10:27;9.80;62.00
50758;DHT22;36732;47.980;11.652;2024-03-06T02:12:54;9.70;61.80
50758;DHT22;36732;47.980;11.652;2024-03-06T02:15:20;9.70;61.80
50758;DHT22;36732;47.980;11.652;2024-03-06T02:17:46;9.70;61.80
50758;DHT22;36732;47.980;11.652;2024-03-06T02:20:12;9.70;61.70
50758;DHT22;36732;47.980;11.652;2024-03-06T02:22:43;9.70;61.60
50758;DHT22;36732;47.980;11.652;2024-03-06T02:25:09;9.70;61.40
50758;DHT22;36732;47.980;11.652;2024-03-06T02:27:36;9.60;61.50
50758;DHT22;36732;47.980;11.652;2024-03-06T02:30:03;9.60;61.60
50758;DHT22;36732;47.980;11.652;2024-03-06T02:32:29;9.60;61.40
50758;DHT22;36732;47.980;11.652;2024-03-06T02:34:56;9.60;61.40
50758;DHT22;36732;47.980;11.652;2024-03-06T02:37:21;9.60;61.20
50758;DHT22;36732;47.980;11.652;2024-03-06T02:39:47;9.60;61.20
50758;DHT22;36732;47.980;11.652;2024-03-06T02:42:13;9.60;61.30
50758;DHT22;36732;47.980;11.652;2024-03-06T02:44:38;9.50;61.20
50758;DHT22;36732;47.980;11.652;2024-03-06T02:47:04;9.50;61.30
50758;DHT22;36732;47.980;11.652;2024-03-06T02:49:30;9.50;61.20
50758;DHT22;36732;47.980;11.652;2024-03-06T02:51:55;9.50;61.10
50758;DHT22;36732;47.980;11.652;2024-03-06T02:54:23;9.50;61.20
50758;DHT22;36732;47.980;11.652;2024-03-06T02:56:51;9.50;61.20
50758;DHT22;36732;47.980;11.652;2024-03-06T02:59:17;9.40;60.90
50758;DHT22;36732;47.980;11.652;2024-03-06T03:01:44;9.40;61.00
50758;DHT22;36732;47.980;11.652;2024-03-06T03:04:10;9.40;61.00
50758;DHT22;36732;47.980;11.652;2024-03-06T03:06:36;9.40;61.10
50758;DHT22;36732;47.980;11.652;2024-03-06T03:09:02;9.40;61.10
50758;DHT22;36732;47.980;11.652;2024-03-06T03:11:29;9.40;60.90
50758;DHT22;36732;47.980;11.652;2024-03-06T03:13:55;9.40;61.00
50758;DHT22;36732;47.980;11.652;2024-03-06T03:16:22;9.40;61.00
50758;DHT22;36732;47.980;11.652;2024-03-06T03:18:47;9.40;61.00
50758;DHT22;36732;47.980;11.652;2024-03-06T03:21:14;9.30;61.00
50758;DHT22;36732;47.980;11.652;2024-03-06T03:23:40;9.30;61.00
50758;DHT22;36732;47.980;11.652;2024-03-06T03:26:07;9.30;60.90
50758;DHT22;36732;47.980;11.652;2024-03-06T03:28:37;9.30;60.80
50758;DHT22;36732;47.980;11.652;2024-03-06T03:31:05;9.30;60.90
50758;DHT22;36732;47.980;11.652;2024-03-06T03:33:43;9.30;60.90
50758;DHT22;36732;47.980;11.652;2024-03-06T03:36:09;9.30;60.70
50758;DHT22;36732;47.980;11.652;2024-03-06T03:38:38;9.30;60.90
50758;DHT22;36732;47.980;11.652;2024-03-06T03:41:11;9.30;60.90
50758;DHT22;36732;47.980;11.652;2024-03-06T03:43:42;9.20;60.70
50758;DHT22;36732;47.980;11.652;2024-03-06T03:46:08;9.20;60.80
50758;DHT22;36732;47.980;11.652;2024-03-06T03:48:35;9.20;60.70
50758;DHT22;36732;47.980;11.652;2024-03-06T03:51:05;9.20;60.80
50758;DHT22;36732;47.980;11.652;2024-03-06T03:53:35;9.20;60.80
50758;DHT22;36732;47.980;11.652;2024-03-06T03:56:01;9.20;60.80
50758;DHT22;36732;47.980;11.652;2024-03-06T03:58:28;9.10;60.90
50758;DHT22;36732;47.980;11.652;2024-03-06T04:00:54;9.20;60.90
50758;DHT22;36732;47.980;11.652;2024-03-06T04:03:21;9.20;60.90
50758;DHT22;36732;47.980;11.652;2024-03-06T04:05:48;9.20;61.50
50758;DHT22;36732;47.980;11.652;2024-03-06T04:08:14;9.10;60.80
50758;DHT22;36732;47.980;11.652;2024-03-06T04:10:41;9.10;60.80
50758;DHT22;36732;47.980;11.652;2024-03-06T04:13:07;9.10;60.80
50758;DHT22;36732;47.980;11.652;2024-03-06T04:15:33;9.10;60.70
50758;DHT22;36732;47.980;11.652;2024-03-06T04:17:59;9.10;60.60
50758;DHT22;36732;47.980;11.652;2024-03-06T04:20:24;9.10;60.60
50758;DHT22;36732;47.980;11.652;2024-03-06T04:22:50;9.10;60.70
50758;DHT22;36732;47.980;11.652;2024-03-06T04:25:16;9.10;60.80
50758;DHT22;36732;47.980;11.652;2024-03-06T04:27:43;9.10;60.70
50758;DHT22;36732;47.980;11.652;2024-03-06T04:30:09;9.10;60.70
50758;DHT22;36732;47.980;11.652;2024-03-06T04:32:35;9.10;60.60
50758;DHT22;36732;47.980;11.652;2024-03-06T04:35:00;9.10;60.70
50758;DHT22;36732;47.980;11.652;2024-03-06T04:37:26;9.10;60.50
50758;DHT22;36732;47.980;11.652;2024-03-06T04:39:52;9.10;60.60
50758;DHT22;36732;47.980;11.652;2024-03-06T04:42:18;9.10;60.70
50758;DHT22;36732;47.980;11.652;2024-03-06T04:44:45;9.00;60.60
50758;DHT22;36732;47.980;11.652;2024-03-06T04:47:11;9.00;60.70
50758;DHT22;36732;47.980;11.652;2024-03-06T04:49:36;9.00;60.70
50758;DHT22;36732;47.980;11.652;2024-03-06T04:52:02;9.00;60.70
50758;DHT22;36732;47.980;11.652;2024-03-06T04:54:29;9.00;60.70
50758;DHT22;36732;47.980;11.652;2024-03-06T04:56:55;9.00;60.60
50758;DHT22;36732;47.980;11.652;2024-03-06T04:59:21;9.00;60.60
50758;DHT22;36732;47.980;11.652;2024-03-06T05:01:47;9.00;60.70
50758;DHT22;36732;47.980;11.652;2024-03-06T05:04:12;9.00;60.70
50758;DHT22;36732;47.980;11.652;2024-03-06T05:06:38;9.00;60.60
50758;DHT22;36732;47.980;11.652;2024-03-06T05:09:04;9.00;60.70
50758;DHT22;36732;47.980;11.652;2024-03-06T05:11:31;8.90;60.70
50758;DHT22;36732;47.980;11.652;2024-03-06T05:14:00;8.90;60.70
50758;DHT22;36732;47.980;11.652;2024-03-06T05:16:26;8.90;60.70
50758;DHT22;36732;47.980;11.652;2024-03-06T05:18:52;8.90;60.70
50758;DHT22;36732;47.980;11.652;2024-03-06T05:21:19;8.90;60.70
50758;DHT22;36732;47.980;11.652;2024-03-06T05:23:47;8.90;60.90
50758;DHT22;36732;47.980;11.652;2024-03-06T05:26:14;8.90;60.90
50758;DHT22;36732;47.980;11.652;2024-03-06T05:28:40;8.90;60.90
50758;DHT22;36732;47.980;11.652;2024-03-06T05:31:16;8.90;60.90
50758;DHT22;36732;47.980;11.652;2024-03-06T05:33:45;8.90;60.90
50758;DHT22;36732;47.980;11.652;2024-03-06T05:36:12;8.90;61.00
50758;DHT22;36732;47.980;11.652;2024-03-06T05:38:43;8.90;60.90
50758;DHT22;36732;47.980;11.652;2024-03-06T05:41:11;8.90;60.90
50758;DHT22;36732;47.980;11.652;2024-03-06T05:43:37;8.90;61.00
50758;DHT22;36732;47.980;11.652;2024-03-06T05:46:02;8.90;60.90
50758;DHT22;36732;47.980;11.652;2024-03-06T05:48:28;8.90;60.80
50758;DHT22;36732;47.980;11.652;2024-03-06T05:50:54;8.90;61.20
50758;DHT22;36732;47.980;11.652;2024-03-06T05:53:19;8.90;60.10
50758;DHT22;36732;47.980;11.652;2024-03-06T05:55:46;8.90;60.40
50758;DHT22;36732;47.980;11.652;2024-03-06T05:58:11;8.90;60.60
50758;DHT22;36732;47.980;11.652;2024-03-06T06:00:38;8.90;60.70
50758;DHT22;36732;47.980;11.652;2024-03-06T06:03:04;8.90;60.70
50758;DHT22;36732;47.980;11.652;2024-03-06T06:05:30;8.90;60.70
50758;DHT22;36732;47.980;11.652;2024-03-06T06:07:56;8.90;60.80
50758;DHT22;36732;47.980;11.652;2024-03-06T06:10:21;8.80;60.80
50758;DHT22;36732;47.980;11.652;2024-03-06T06:12:47;8.90;61.00
50758;DHT22;36732;47.980;11.652;2024-03-06T06:15:13;8.80;61.00
50758;DHT22;36732;47.980;11.652;2024-03-06T06:17:38;8.80;61.00
50758;DHT22;36732;47.980;11.652;2024-03-06T06:20:08;8.80;61.00
50758;DHT22;36732;47.980;11.652;2024-03-06T06:22:38;8.80;61.00
50758;DHT22;36732;47.980;11.652;2024-03-06T06:25:04;8.80;61.10
50758;DHT22;36732;47.980;11.652;2024-03-06T06:27:30;8.80;61.00
50758;DHT22;36732;47.980;11.652;2024-03-06T06:29:56;8.80;61.20
50758;DHT22;36732;47.980;11.652;2024-03-06T06:32:23;8.80;61.20
50758;DHT22;36732;47.980;11.652;2024-03-06T06:34:49;8.80;61.20
50758;DHT22;36732;47.980;11.652;2024-03-06T06:37:14;8.80;61.10
50758;DHT22;36732;47.980;11.652;2024-03-06T06:39:41;8.80;61.20
50758;DHT22;36732;47.980;11.652;2024-03-06T06:42:06;8.80;61.20
50758;DHT22;36732;47.980;11.652;2024-03-06T06:44:34;8.80;61.10
50758;DHT22;36732;47.980;11.652;2024-03-06T06:46:59;8.80;61.20
50758;DHT22;36732;47.980;11.652;2024-03-06T06:49:25;8.80;61.10
50758;DHT22;36732;47.980;11.652;2024-03-06T06:51:51;8.80;61.10
50758;DHT22;36732;47.980;11.652;2024-03-06T06:54:16;8.80;61.20
50758;DHT22;36732;47.980;11.652;2024-03-06T06:56:42;8.80;61.20
50758;DHT22;36732;47.980;11.652;2024-03-06T06:59:08;8.80;61.20
50758;DHT22;36732;47.980;11.652;2024-03-06T07:01:33;8.80;61.10
50758;DHT22;36732;47.980;11.652;2024-03-06T07:04:00;8.80;61.20
50758;DHT22;36732;47.980;11.652;2024-03-06T07:06:27;8.80;61.20
50758;DHT22;36732;47.980;11.652;2024-03-06T07:08:53;8.80;61.20
50758;DHT22;36732;47.980;11.652;2024-03-06T07:11:18;8.70;61.20
50758;DHT22;36732;47.980;11.652;2024-03-06T07:13:44;8.70;61.10
50758;DHT22;36732;47.980;11.652;2024-03-06T07:16:10;8.70;61.10
50758;DHT22;36732;47.980;11.652;2024-03-06T07:18:36;8.70;61.20
50758;DHT22;36732;47.980;11.652;2024-03-06T07:21:02;8.70;61.30
50758;DHT22;36732;47.980;11.652;2024-03-06T07:23:28;8.70;61.20
50758;DHT22;36732;47.980;11.652;2024-03-06T07:25:53;8.70;61.20
50758;DHT22;36732;47.980;11.652;2024-03-06T07:28:19;8.70;61.30
50758;DHT22;36732;47.980;11.652;2024-03-06T07:30:46;8.70;61.40
50758;DHT22;36732;47.980;11.652;2024-03-06T07:33:12;8.70;61.40
50758;DHT22;36732;47.980;11.652;2024-03-06T07:35:39;8.70;61.50
50758;DHT22;36732;47.980;11.652;2024-03-06T07:38:05;8.70;61.50
50758;DHT22;36732;47.980;11.652;2024-03-06T07:40:31;8.70;61.50
50758;DHT22;36732;47.980;11.652;2024-03-06T07:42:57;8.70;61.50
50758;DHT22;36732;47.980;11.652;2024-03-06T07:45:25;8.70;61.50
50758;DHT22;36732;47.980;11.652;2024-03-06T07:47:51;8.70;61.60
50758;DHT22;36732;47.980;11.652;2024-03-06T07:50:17;8.70;61.60
50758;DHT22;36732;47.980;11.652;2024-03-06T07:52:45;8.70;61.70
50758;DHT22;36732;47.980;11.652;2024-03-06T07:55:11;8.70;61.70
50758;DHT22;36732;47.980;11.652;2024-03-06T07:57:37;8.70;62.30
50758;DHT22;36732;47.980;11.652;2024-03-06T08:00:05;8.70;61.60
50758;DHT22;36732;47.980;11.652;2024-03-06T08:02:42;8.70;61.70
50758;DHT22;36732;47.980;11.652;2024-03-06T08:05:11;8.70;61.70
50758;DHT22;36732;47.980;11.652;2024-03-06T08:07:40;8.60;61.60
50758;DHT22;36732;47.980;11.652;2024-03-06T08:10:11;8.70;62.40
50758;DHT22;36732;47.980;11.652;2024-03-06T08:12:43;8.70;61.80
50758;DHT22;36732;47.980;11.652;2024-03-06T08:15:13;8.70;61.80
50758;DHT22;36732;47.980;11.652;2024-03-06T08:17:40;8.70;61.90
50758;DHT22;36732;47.980;11.652;2024-03-06T08:20:10;8.70;61.90
50758;DHT22;36732;47.980;11.652;2024-03-06T08:22:38;8.70;62.00
50758;DHT22;36732;47.980;11.652;2024-03-06T08:25:06;8.70;62.00
50758;DHT22;36732;47.980;11.652;2024-03-06T08:27:32;8.70;62.00
50758;DHT22;36732;47.980;11.652;2024-03-06T08:29:58;8.70;62.10
50758;DHT22;36732;47.980;11.652;2024-03-06T08:32:24;8.70;62.10
50758;DHT22;36732;47.980;11.652;2024-03-06T08:34:50;8.70;62.20
50758;DHT22;36732;47.980;11.652;2024-03-06T08:37:16;8.70;62.20
50758;DHT22;36732;47.980;11.652;2024-03-06T08:39:41;8.70;62.20
50758;DHT22;36732;47.980;11.652;2024-03-06T08:42:07;8.70;62.20
50758;DHT22;36732;47.980;11.652;2024-03-06T08:44:33;8.70;62.40
50758;DHT22;36732;47.980;11.652;2024-03-06T08:46:59;8.70;62.30
50758;DHT22;36732;47.980;11.652;2024-03-06T08:49:25;8.70;62.30
50758;DHT22;36732;47.980;11.652;2024-03-06T08:51:50;8.70;62.30
50758;DHT22;36732;47.980;11.652;2024-03-06T08:54:16;8.70;62.30
50758;DHT22;36732;47.980;11.652;2024-03-06T08:56:44;8.70;62.30
50758;DHT22;36732;47.980;11.652;2024-03-06T08:59:10;8.70;62.40
50758;DHT22;36732;47.980;11.652;2024-03-06T09:01:36;8.70;62.40
50758;DHT22;36732;47.980;11.652;2024-03-06T09:04:02;8.70;62.50
50758;DHT22;36732;47.980;11.652;2024-03-06T09:06:27;8.70;62.50
50758;DHT22;36732;47.980;11.652;2024-03-06T09:08:53;8.70;62.50
50758;DHT22;36732;47.980;11.652;2024-03-06T09:11:19;8.70;62.50
50758;DHT22;36732;47.980;11.652;2024-03-06T09:13:44;8.70;62.50
50758;DHT22;36732;47.980;11.652;2024-03-06T09:16:10;8.80;62.60
50758;DHT22;36732;47.980;11.652;2024-03-06T09:18:36;8.70;62.50
50758;DHT22;36732;47.980;11.652;2024-03-06T09:21:01;8.80;63.10
50758;DHT22;36732;47.980;11.652;2024-03-06T09:23:27;8.70;62.60
50758;DHT22;36732;47.980;11.652;2024-03-06T09:25:55;8.70;62.70
50758;DHT22;36732;47.980;11.652;2024-03-06T09:28:21;8.70;62.70
50758;DHT22;36732;47.980;11.652;2024-03-06T09:30:48;8.70;62.80
50758;DHT22;36732;47.980;11.652;2024-03-06T09:33:13;8.70;62.80
50758;DHT22;36732;47.980;11.652;2024-03-06T09:35:39;8.80;62.90
50758;DHT22;36732;47.980;11.652;2024-03-06T09:38:11;8.80;63.00
50758;DHT22;36732;47.980;11.652;2024-03-06T09:40:38;8.80;63.00
50758;DHT22;36732;47.980;11.652;2024-03-06T09:43:06;8.80;63.00
50758;DHT22;36732;47.980;11.652;2024-03-06T09:45:32;8.80;63.00
50758;DHT22;36732;47.980;11.652;2024-03-06T09:47:58;8.80;63.00
50758;DHT22;36732;47.980;11.652;2024-03-06T09:50:24;8.80;63.00
50758;DHT22;36732;47.980;11.652;2024-03-06T09:52:52;8.80;63.10
50758;DHT22;36732;47.980;11.652;2024-03-06T09:55:21;8.80;63.10
50758;DHT22;36732;47.980;11.652;2024-03-06T09:57:47;8.80;63.10
50758;DHT22;36732;47.980;11.652;2024-03-06T10:00:14;8.80;63.10
50758;DHT22;36732;47.980;11.652;2024-03-06T10:02:57;8.80;63.10
50758;DHT22;36732;47.980;11.652;2024-03-06T10:05:25;8.80;63.40
50758;DHT22;36732;47.980;11.652;2024-03-06T10:07:51;8.80;63.30
50758;DHT22;36732;47.980;11.652;2024-03-06T10:10:20;8.80;63.20
50758;DHT22;36732;47.980;11.652;2024-03-06T10:12:48;8.80;63.20
50758;DHT22;36732;47.980;11.652;2024-03-06T10:15:14;8.80;63.20
50758;DHT22;36732;47.980;11.652;2024-03-06T10:17:40;8.80;63.20
50758;DHT22;36732;47.980;11.652;2024-03-06T10:20:19;8.80;63.30
50758;DHT22;36732;47.980;11.652;2024-03-06T10:22:52;8.80;63.50
50758;DHT22;36732;47.980;11.652;2024-03-06T10:25:20;8.80;63.50
50758;DHT22;36732;47.980;11.652;2024-03-06T10:28:02;8.80;63.50
50758;DHT22;36732;47.980;11.652;2024-03-06T10:30:28;8.80;63.50
50758;DHT22;36732;47.980;11.652;2024-03-06T10:32:54;8.80;63.50
50758;DHT22;36732;47.980;11.652;2024-03-06T10:35:20;8.80;63.60
50758;DHT22;36732;47.980;11.652;2024-03-06T10:37:49;8.80;63.60
50758;DHT22;36732;47.980;11.652;2024-03-06T10:40:16;8.80;63.50
50758;DHT22;36732;47.980;11.652;2024-03-06T10:42:42;8.80;63.60
50758;DHT22;36732;47.980;11.652;2024-03-06T10:45:12;8.80;63.60
50758;DHT22;36732;47.980;11.652;2024-03-06T10:47:40;8.80;63.60
50758;DHT22;36732;47.980;11.652;2024-03-06T10:50:06;8.80;63.60
50758;DHT22;36732;47.980;11.652;2024-03-06T10:52:38;8.80;63.60
50758;DHT22;36732;47.980;11.652;2024-03-06T10:55:05;8.80;63.60
50758;DHT22;36732;47.980;11.652;2024-03-06T10:57:32;8.80;63.60
50758;DHT22;36732;47.980;11.652;2024-03-06T10:59:59;8.80;63.70
50758;DHT22;36732;47.980;11.652;2024-03-06T11:02:27;8.80;63.90
50758;DHT22;36732;47.980;11.652;2024-03-06T11:04:54;8.80;63.90
50758;DHT22;36732;47.980;11.652;2024-03-06T11:07:19;8.80;64.00
50758;DHT22;36732;47.980;11.652;2024-03-06T11:09:45;8.80;64.00
50758;DHT22;36732;47.980;11.652;2024-03-06T11:12:35;8.80;63.90
50758;DHT22;36732;47.980;11.652;2024-03-06T11:15:13;8.90;64.20
50758;DHT22;36732;47.980;11.652;2024-03-06T11:17:39;8.80;63.90
50758;DHT22;36732;47.980;11.652;2024-03-06T11:28:22;8.90;64.10
50758;DHT22;36732;47.980;11.652;2024-03-06T11:31:02;8.80;63.90
50758;DHT22;36732;47.980;11.652;2024-03-06T11:33:41;8.90;64.00
50758;DHT22;36732;47.980;11.652;2024-03-06T11:39:01;8.90;64.10
50758;DHT22;36732;47.980;11.652;2024-03-06T11:41:49;8.90;63.90
50758;DHT22;36732;47.980;11.652;2024-03-06T11:44:17;8.90;64.10
50758;DHT22;36732;47.980;11.652;2024-03-06T11:47:02;8.90;64.10
50758;DHT22;36732;47.980;11.652;2024-03-06T11:49:34;8.90;64.00
50758;DHT22;36732;47.980;11.652;2024-03-06T11:52:06;8.90;64.00
50758;DHT22;36732;47.980;11.652;2024-03-06T11:54:33;8.90;64.00
50758;DHT22;36732;47.980;11.652;2024-03-06T11:57:01;8.90;63.90
50758;DHT22;36732;47.980;11.652;2024-03-06T11:59:29;8.90;64.00
50758;DHT22;36732;47.980;11.652;2024-03-06T12:01:58;8.90;64.00
50758;DHT22;36732;47.980;11.652;2024-03-06T12:04:27;8.90;64.00
50758;DHT22;36732;47.980;11.652;2024-03-06T12:06:59;8.80;63.90
50758;DHT22;36732;47.980;11.652;2024-03-06T12:09:26;8.80;64.00
50758;DHT22;36732;47.980;11.652;2024-03-06T12:11:52;8.90;64.10
50758;DHT22;36732;47.980;11.652;2024-03-06T12:14:19;8.90;64.20
50758;DHT22;36732;47.980;11.652;2024-03-06T12:16:59;8.80;64.00
50758;DHT22;36732;47.980;11.652;2024-03-06T12:19:32;8.90;64.20
50758;DHT22;36732;47.980;11.652;2024-03-06T12:22:05;8.90;64.00
50758;DHT22;36732;47.980;11.652;2024-03-06T12:24:31;8.90;64.10
50758;DHT22;36732;47.980;11.652;2024-03-06T12:27:01;8.80;63.90
50758;DHT22;36732;47.980;11.652;2024-03-06T12:29:29;8.90;64.10
50758;DHT22;36732;47.980;11.652;2024-03-06T12:31:57;8.90;64.00
50758;DHT22;36732;47.980;11.652;2024-03-06T12:34:23;8.90;64.10
50758;DHT22;36732;47.980;11.652;2024-03-06T12:36:49;8.90;64.00
50758;DHT22;36732;47.980;11.652;2024-03-06T12:39:16;8.90;64.80
50758;DHT22;36732;47.980;11.652;2024-03-06T12:41:51;8.90;64.20
50758;DHT22;36732;47.980;11.652;2024-03-06T12:44:19;8.90;64.20
50758;DHT22;36732;47.980;11.652;2024-03-06T12:46:45;8.90;64.30
50758;DHT22;36732;47.980;11.652;2024-03-06T12:49:10;8.90;64.30
50758;DHT22;36732;47.980;11.652;2024-03-06T12:51:36;8.80;64.30
50758;DHT22;36732;47.980;11.652;2024-03-06T12:54:02;8.90;64.40
50758;DHT22;36732;47.980;11.652;2024-03-06T12:56:29;8.90;64.40
50758;DHT22;36732;47.980;11.652;2024-03-06T12:58:54;8.90;64.30
50758;DHT22;36732;47.980;11.652;2024-03-06T13:01:20;8.90;64.20
50758;DHT22;36732;47.980;11.652;2024-03-06T13:03:46;8.90;64.20
50758;DHT22;36732;47.980;11.652;2024-03-06T13:06:12;8.90;64.20
50758;DHT22;36732;47.980;11.652;2024-03-06T13:08:37;8.90;64.20
50758;DHT22;36732;47.980;11.652;2024-03-06T13:11:03;8.90;64.10
50758;DHT22;36732;47.980;11.652;2024-03-06T13:13:29;8.90;64.00
50758;DHT22;36732;47.980;11.652;2024-03-06T13:15:58;8.80;64.10
50758;DHT22;36732;47.980;11.652;2024-03-06T13:18:23;8.90;64.20
50758;DHT22;36732;47.980;11.652;2024-03-06T13:20:52;8.90;64.10
50758;DHT22;36732;47.980;11.652;2024-03-06T13:23:18;8.90;64.10
50758;DHT22;36732;47.980;11.652;2024-03-06T13:25:44;8.90;64.10
50758;DHT22;36732;47.980;11.652;2024-03-06T13:28:11;8.90;64.10
50758;DHT22;36732;47.980;11.652;2024-03-06T13:30:37;8.90;64.20
50758;DHT22;36732;47.980;11.652;2024-03-06T13:33:04;8.90;64.20
50758;DHT22;36732;47.980;11.652;2024-03-06T13:35:31;8.90;64.30
50758;DHT22;36732;47.980;11.652;2024-03-06T13:37:56;8.90;64.20
50758;DHT22;36732;47.980;11.652;2024-03-06T13:40:22;8.80;64.10
50758;DHT22;36732;47.980;11.652;2024-03-06T13:42:48;8.90;64.10
50758;DHT22;36732;47.980;11.652;2024-03-06T13:45:14;8.90;64.10
50758;DHT22;36732;47.980;11.652;2024-03-06T13:47:41;8.90;64.10
50758;DHT22;36732;47.980;11.652;2024-03-06T13:50:12;8.90;64.20
50758;DHT22;36732;47.980;11.652;2024-03-06T13:52:41;8.80;64.20
50758;DHT22;36732;47.980;11.652;2024-03-06T13:55:08;8.90;64.40
50758;DHT22;36732;47.980;11.652;2024-03-06T13:57:35;8.90;63.90
50758;DHT22;36732;47.980;11.652;2024-03-06T14:00:09;8.90;64.00
50758;DHT22;36732;47.980;11.652;2024-03-06T14:02:43;8.90;64.20
50758;DHT22;36732;47.980;11.652;2024-03-06T14:05:11;8.90;64.20
50758;DHT22;36732;47.980;11.652;2024-03-06T14:07:38;8.90;64.20
50758;DHT22;36732;47.980;11.652;2024-03-06T14:10:05;8.90;64.30
50758;DHT22;36732;47.980;11.652;2024-03-06T14:12:33;8.90;64.20
50758;DHT22;36732;47.980;11.652;2024-03-06T14:15:00;8.80;64.20
50758;DHT22;36732;47.980;11.652;2024-03-06T14:17:26;8.80;64.30
50758;DHT22;36732;47.980;11.652;2024-03-06T14:19:52;8.80;64.40
50758;DHT22;36732;47.980;11.652;2024-03-06T14:22:18;8.80;64.40
50758;DHT22;36732;47.980;11.652;2024-03-06T14:24:43;8.80;64.40
50758;DHT22;36732;47.980;11.652;2024-03-06T14:27:09;8.90;64.40
50758;DHT22;36732;47.980;11.652;2024-03-06T14:29:35;8.90;64.20
50758;DHT22;36732;47.980;11.652;2024-03-06T14:32:00;8.90;64.20
50758;DHT22;36732;47.980;11.652;2024-03-06T14:34:26;8.90;64.10
50758;DHT22;36732;47.980;11.652;2024-03-06T14:36:52;8.80;64.00
50758;DHT22;36732;47.980;11.652;2024-03-06T14:39:19;8.80;64.00
50758;DHT22;36732;47.980;11.652;2024-03-06T14:41:48;8.80;64.00
50758;DHT22;36732;47.980;11.652;2024-03-06T14:44:13;8.80;64.00
50758;DHT22;36732;47.980;11.652;2024-03-06T14:46:40;8.80;64.10
50758;DHT22;36732;47.980;11.652;2024-03-06T14:49:07;8.80;64.10
50758;DHT22;36732;47.980;11.652;2024-03-06T14:51:33;8.80;64.00
50758;DHT22;36732;47.980;11.652;2024-03-06T14:53:59;8.80;64.00
50758;DHT22;36732;47.980;11.652;2024-03-06T14:56:24;8.80;63.90
50758;DHT22;36732;47.980;11.652;2024-03-06T14:58:50;8.80;64.10
50758;DHT22;36732;47.980;11.652;2024-03-06T15:01:17;8.80;64.00
50758;DHT22;36732;47.980;11.652;2024-03-06T15:03:43;8.80;64.00
50758;DHT22;36732;47.980;11.652;2024-03-06T15:06:11;8.80;64.00
50758;DHT22;36732;47.980;11.652;2024-03-06T15:08:37;8.80;64.00
50758;DHT22;36732;47.980;11.652;2024-03-06T15:11:03;8.80;64.00
50758;DHT22;36732;47.980;11.652;2024-03-06T15:13:28;8.80;64.00
50758;DHT22;36732;47.980;11.652;2024-03-06T15:15:54;8.80;64.00
50758;DHT22;36732;47.980;11.652;2024-03-06T15:18:20;8.80;64.00
50758;DHT22;36732;47.980;11.652;2024-03-06T15:20:46;8.80;64.00
50758;DHT22;36732;47.980;11.652;2024-03-06T15:23:12;8.80;63.90
50758;DHT22;36732;47.980;11.652;2024-03-06T15:25:37;8.80;64.00
50758;DHT22;36732;47.980;11.652;2024-03-06T15:28:03;8.80;64.00
50758;DHT22;36732;47.980;11.652;2024-03-06T15:30:29;8.80;63.90
50758;DHT22;36732;47.980;11.652;2024-03-06T15:32:57;8.80;64.00
50758;DHT22;36732;47.980;11.652;2024-03-06T15:35:22;8.80;64.00
50758;DHT22;36732;47.980;11.652;2024-03-06T15:37:49;8.80;64.00
50758;DHT22;36732;47.980;11.652;2024-03-06T15:40:14;8.80;64.00